Antelope, Montana
Current Conditions -  °F | °C
As of 2:52 AM on Tuesday 21 Oct 2014 (Local Time) from KISN Reporting Station
Clear Clear  
Wind Chill:   Ceiling: Unl
Heat Index:   Visibility: 10mi
Dew Point:   Wind: 0mph
Humidity: 89%   Direction: NA
Pressure: 29.78"   Gusts: NA
Location:  48.69°N, 104.46°W
Report Text: KISN 210852Z AUTO 00000KT 10SM CLR 04/02 A2978 RMK AO2 SLP086 T00390022 58008
Loading
Personal Weather Stations






























Interactive Weather Map
Tropical Storm Tracking
New forecast layout! Learn more

10-Day Weather Forecast

Advertisements
Track Severe Weather on mobile